Time;durP1;ratioP1;P1;durP2;ratioP2;P2;SDS_P1;SDS_P2;PMS_P1;PMS_P2;Temp;Humidity;BMP_temperature;BMP_pressure;BME280_temperature;BME280_humidity;BME280_pressure;Samples;Min_cycle;Max_cycle;Signal;HPM_P1;HPM_P2
2022/04/25 00:01:15;;;;;;;15.52;8.07;;;10.00;99.90;;;;;;4974800;28;20087;-77
2022/04/25 00:03:41;;;;;;;14.32;8.32;;;9.90;99.90;;;;;;4978267;28;20054;-77
2022/04/25 00:06:07;;;;;;;15.18;9.15;;;9.80;99.90;;;;;;4958887;28;20056;-78
2022/04/25 00:08:33;;;;;;;14.70;7.85;;;9.70;99.90;;;;;;4958294;28;20046;-77
2022/04/25 00:10:58;;;;;;;15.48;8.15;;;9.70;99.90;;;;;;4973436;28;20847;-77
2022/04/25 00:13:24;;;;;;;21.27;8.88;;;9.60;99.90;;;;;;4974759;28;20042;-77
2022/04/25 00:15:52;;;;;;;14.50;8.52;;;9.70;99.90;;;;;;4958629;28;20437;-77
2022/04/25 00:18:18;;;;;;;13.30;8.18;;;9.60;99.90;;;;;;4974899;28;20057;-77
2022/04/25 00:20:44;;;;;;;16.17;8.95;;;9.60;99.90;;;;;;4976813;28;20058;-77
2022/04/25 00:23:10;;;;;;;;;;;9.60;99.90;;;;;;4958881;28;20057;-77
2022/04/25 00:25:36;;;;;;;13.73;8.52;;;9.60;99.90;;;;;;4993318;28;20270;-77
2022/04/25 00:28:03;;;;;;;;;;;9.60;99.90;;;;;;4986990;28;20052;-77
2022/04/25 00:30:29;;;;;;;18.05;9.50;;;9.50;99.90;;;;;;4994045;28;19972;-75
2022/04/25 00:32:58;;;;;;;14.18;9.27;;;9.50;99.90;;;;;;4976828;28;20092;-75
2022/04/25 00:35:25;;;;;;;16.70;9.77;;;9.40;99.90;;;;;;4993920;28;20053;-75
2022/04/25 00:37:51;;;;;;;18.45;9.73;;;9.40;99.90;;;;;;4993000;28;20496;-75
2022/04/25 00:40:22;;;;;;;17.55;10.27;;;9.40;99.90;;;;;;4992860;28;20049;-75
2022/04/25 00:42:48;;;;;;;19.85;10.30;;;9.40;99.90;;;;;;4991259;28;20082;-74
2022/04/25 00:45:14;;;;;;;;;;;9.30;99.90;;;;;;4994452;28;20050;-74
2022/04/25 00:47:41;;;;;;;17.45;9.95;;;9.20;99.90;;;;;;4993588;28;19926;-75
2022/04/25 00:50:08;;;;;;;21.35;11.35;;;9.20;99.90;;;;;;4993367;28;20079;-75
2022/04/25 00:52:35;;;;;;;21.65;11.43;;;9.10;99.90;;;;;;4990094;28;20100;-75
2022/04/25 00:55:02;;;;;;;22.55;10.65;;;9.10;99.90;;;;;;4973576;28;20602;-75
2022/04/25 00:57:30;;;;;;;17.80;10.25;;;9.10;99.90;;;;;;4972469;28;20050;-75
2022/04/25 00:59:57;;;;;;;19.50;11.07;;;9.00;99.90;;;;;;4992682;28;20195;-75
2022/04/25 01:02:25;;;;;;;18.48;10.68;;;9.10;99.90;;;;;;4993281;28;20058;-75
2022/04/25 01:04:51;;;;;;;24.00;11.27;;;9.10;99.90;;;;;;4993241;28;20061;-75
2022/04/25 01:07:16;;;;;;;21.20;11.40;;;9.10;99.90;;;;;;4989043;28;20045;-75
2022/04/25 01:09:42;;;;;;;20.88;11.10;;;9.20;99.90;;;;;;4957554;28;20050;-75
2022/04/25 01:12:08;;;;;;;20.10;11.65;;;9.10;99.90;;;;;;4956316;28;20050;-75
2022/04/25 01:14:33;;;;;;;16.98;10.90;;;9.00;99.90;;;;;;4974110;28;20046;-75
2022/04/25 01:17:00;;;;;;;22.73;10.95;;;8.90;99.90;;;;;;4973462;28;20346;-75
2022/04/25 01:19:26;;;;;;;21.80;12.50;;;8.90;99.90;;;;;;4974190;28;20117;-75
2022/04/25 01:22:00;;;;;;;24.48;12.70;;;8.80;99.90;;;;;;4972344;28;20049;-75
2022/04/25 01:27:18;;;;;;;21.52;11.70;;;8.80;99.90;;;;;;4990969;28;20054;-74
2022/04/25 01:29:45;;;;;;;22.20;12.73;;;8.70;99.90;;;;;;4973356;28;20059;-74
2022/04/25 01:32:11;;;;;;;27.00;12.85;;;8.70;99.90;;;;;;4974049;28;20050;-75
2022/04/25 01:34:38;;;;;;;25.95;12.18;;;8.70;99.90;;;;;;4967560;28;20042;-75
2022/04/25 01:37:15;;;;;;;24.02;12.05;;;8.70;99.90;;;;;;4973044;28;20149;-77
2022/04/25 01:39:49;;;;;;;18.80;10.82;;;8.70;99.90;;;;;;4957733;28;20089;-80
2022/04/25 01:42:15;;;;;;;26.48;12.27;;;8.60;99.90;;;;;;4972140;28;20050;-77
2022/04/25 01:44:41;;;;;;;21.88;11.48;;;8.50;99.90;;;;;;4994044;28;20138;-80
2022/04/25 01:47:07;;;;;;;23.58;11.80;;;8.50;99.90;;;;;;4980428;28;20136;-78
2022/04/25 01:49:33;;;;;;;20.52;11.45;;;8.50;99.90;;;;;;4972545;28;20125;-77
2022/04/25 01:52:22;;;;;;;24.60;11.88;;;8.50;99.90;;;;;;4995598;28;20056;-77
2022/04/25 01:54:48;;;;;;;24.80;11.85;;;8.50;99.90;;;;;;4988385;28;20407;-77
2022/04/25 01:57:14;;;;;;;20.42;11.98;;;8.50;99.90;;;;;;4989408;28;20042;-77
2022/04/25 01:59:40;;;;;;;24.05;12.55;;;8.50;99.90;;;;;;4977562;28;20125;-80
2022/04/25 02:02:06;;;;;;;22.15;11.52;;;8.50;99.90;;;;;;4976747;28;20137;-77
2022/04/25 02:04:32;;;;;;;24.90;11.10;;;8.50;99.90;;;;;;4961407;28;20062;-77
2022/04/25 02:06:58;;;;;;;27.55;12.70;;;8.50;99.90;;;;;;4976569;28;20054;-77
2022/04/25 02:09:24;;;;;;;25.55;11.90;;;8.40;99.90;;;;;;4977327;28;20096;-77
2022/04/25 02:11:50;;;;;;;24.90;12.90;;;8.40;99.90;;;;;;4983632;28;20484;-77
2022/04/25 02:14:16;;;;;;;20.75;11.73;;;8.70;99.90;;;;;;4977251;28;20491;-77
2022/04/25 02:16:42;;;;;;;22.85;12.13;;;8.50;99.90;;;;;;4977065;28;20403;-78
2022/04/25 02:19:08;;;;;;;23.95;11.10;;;8.40;99.90;;;;;;4977052;28;20108;-77
2022/04/25 02:21:34;;;;;;;24.27;11.05;;;8.40;99.90;;;;;;4960844;28;20451;-77
2022/04/25 02:23:59;;;;;;;29.05;11.85;;;8.30;99.90;;;;;;4960038;28;20049;-76
2022/04/25 02:26:25;;;;;;;31.17;13.57;;;8.20;99.90;;;;;;4966355;28;20050;-77
2022/04/25 02:28:54;;;;;;;23.13;12.85;;;8.10;99.90;;;;;;4976025;28;20042;-77
2022/04/25 02:31:20;;;;;;;22.90;12.18;;;8.10;99.90;;;;;;4976978;28;20061;-77
2022/04/25 02:33:46;;;;;;;26.00;12.55;;;8.00;99.90;;;;;;4976632;28;20051;-77
2022/04/25 02:36:13;;;;;;;25.63;12.07;;;8.00;99.90;;;;;;4993908;28;20057;-77
2022/04/25 02:38:39;;;;;;;23.80;12.07;;;7.90;99.90;;;;;;4993697;28;20054;-77
2022/04/25 02:41:05;;;;;;;23.02;11.80;;;7.90;99.90;;;;;;4974595;28;20714;-77
2022/04/25 02:43:41;;;;;;;26.40;12.02;;;7.90;99.90;;;;;;4976390;28;20196;-77
2022/04/25 02:46:17;;;;;;;20.73;11.55;;;7.90;99.90;;;;;;4960123;28;20318;-77
2022/04/25 02:48:45;;;;;;;28.17;11.50;;;7.80;99.90;;;;;;4990477;28;20411;-77
2022/04/25 02:51:12;;;;;;;25.38;11.73;;;7.80;99.90;;;;;;4961968;28;20064;-77
2022/04/25 02:53:38;;;;;;;23.83;11.85;;;7.80;99.90;;;;;;4976673;28;20125;-76
2022/04/25 02:56:05;;;;;;;22.15;12.05;;;7.80;99.90;;;;;;4973888;28;20053;-77
2022/04/25 02:58:32;;;;;;;26.25;12.13;;;7.80;99.90;;;;;;4976100;28;20058;-77
2022/04/25 03:00:59;;;;;;;23.02;11.20;;;7.80;99.90;;;;;;4959686;28;20129;-76
2022/04/25 03:03:25;;;;;;;;;;;7.80;99.90;;;;;;4979688;28;20054;-77
2022/04/25 03:05:52;;;;;;;20.58;10.73;;;7.80;99.90;;;;;;4975529;28;19926;-76
2022/04/25 03:08:22;;;;;;;24.98;11.00;;;7.80;99.90;;;;;;4960304;28;20159;-77
2022/04/25 03:10:51;;;;;;;22.05;11.55;;;7.80;99.90;;;;;;4974100;28;20108;-78
2022/04/25 03:13:17;;;;;;;25.27;12.07;;;7.80;99.90;;;;;;4992085;28;20054;-76
2022/04/25 03:15:46;;;;;;;24.27;11.40;;;7.80;99.90;;;;;;4992614;28;20065;-76
2022/04/25 03:18:15;;;;;;;20.52;11.57;;;7.80;99.90;;;;;;4992285;28;20089;-76
2022/04/25 03:20:46;;;;;;;26.35;11.55;;;7.70;99.90;;;;;;4978176;28;20590;-76
2022/04/25 03:23:13;;;;;;;21.73;11.68;;;7.70;99.90;;;;;;4959817;28;20069;-76
2022/04/25 03:25:39;;;;;;;21.88;11.43;;;7.70;99.90;;;;;;4975255;28;20066;-79
2022/04/25 03:28:05;;;;;;;23.55;11.63;;;7.70;99.90;;;;;;4958319;28;20121;-76
2022/04/25 03:30:31;;;;;;;21.98;11.35;;;7.70;99.90;;;;;;4975949;28;20121;-77
2022/04/25 03:32:56;;;;;;;25.42;11.52;;;7.70;99.90;;;;;;4977902;28;20046;-77
2022/04/25 03:35:23;;;;;;;24.90;12.18;;;7.70;99.90;;;;;;4995368;28;20053;-76
2022/04/25 03:37:49;;;;;;;25.30;11.95;;;7.70;99.90;;;;;;4975223;28;20132;-78
2022/04/25 03:40:16;;;;;;;27.35;11.18;;;7.80;99.90;;;;;;4975130;28;20054;-76
2022/04/25 03:42:44;;;;;;;23.92;12.23;;;7.70;99.90;;;;;;4959142;28;20038;-77
2022/04/25 03:45:11;;;;;;;22.35;11.20;;;7.70;99.90;;;;;;4959172;28;20042;-76
2022/04/25 03:47:38;;;;;;;21.85;11.65;;;7.70;99.90;;;;;;4975713;28;20065;-77
2022/04/25 03:50:07;;;;;;;24.50;11.73;;;7.70;99.90;;;;;;4958589;28;20396;-77
2022/04/25 03:52:37;;;;;;;25.92;11.88;;;7.60;99.90;;;;;;4968817;28;20038;-77
2022/04/25 03:57:52;;;;;;;24.75;12.10;;;7.60;99.90;;;;;;4973207;28;20467;-79
2022/04/25 04:00:18;;;;;;;;;;;7.60;99.90;;;;;;4975740;28;20057;-77
2022/04/25 04:02:44;;;;;;;20.40;10.63;;;7.60;99.90;;;;;;4974444;28;19922;-77
2022/04/25 04:05:11;;;;;;;22.83;11.30;;;7.50;99.90;;;;;;4958623;28;20062;-77
2022/04/25 04:07:36;;;;;;;25.08;11.10;;;7.60;99.90;;;;;;4964491;28;20050;-77
2022/04/25 04:10:02;;;;;;;20.70;10.07;;;7.60;99.90;;;;;;4974116;28;20404;-79
2022/04/25 04:12:34;;;;;;;28.98;12.20;;;7.60;99.90;;;;;;4957331;28;20105;-77
2022/04/25 04:15:07;;;;;;;24.45;11.50;;;7.60;99.90;;;;;;4974612;28;20134;-77
2022/04/25 04:17:33;;;;;;;20.67;11.45;;;7.60;99.90;;;;;;4975101;28;20081;-77
2022/04/25 04:19:59;;;;;;;27.77;11.30;;;7.70;99.90;;;;;;4974477;28;20082;-75
2022/04/25 04:22:29;;;;;;;25.58;11.23;;;7.50;99.90;;;;;;4974427;28;20081;-76
2022/04/25 04:25:05;;;;;;;22.73;11.30;;;7.60;99.90;;;;;;4974372;28;20046;-78
2022/04/25 04:27:32;;;;;;;22.55;10.75;;;7.60;99.90;;;;;;4982862;28;20053;-75
2022/04/25 04:30:02;;;;;;;24.17;11.13;;;7.60;99.90;;;;;;4993480;28;20224;-75
2022/04/25 04:32:29;;;;;;;19.70;10.95;;;7.60;99.90;;;;;;4978162;28;20061;-75
2022/04/25 04:34:56;;;;;;;23.35;11.13;;;7.70;99.90;;;;;;4978125;28;20365;-77
2022/04/25 04:37:23;;;;;;;24.30;11.10;;;7.60;99.90;;;;;;4985299;28;20491;-75
2022/04/25 04:39:48;;;;;;;21.60;10.73;;;7.70;99.90;;;;;;4978022;28;20533;-75
2022/04/25 04:42:14;;;;;;;21.25;11.55;;;7.70;99.90;;;;;;4991421;28;20050;-75
2022/04/25 04:44:42;;;;;;;22.02;10.57;;;7.70;99.90;;;;;;4993974;28;20053;-75
2022/04/25 04:47:08;;;;;;;20.17;11.27;;;7.80;99.90;;;;;;4976603;28;20522;-76
2022/04/25 04:49:34;;;;;;;21.48;10.38;;;7.80;99.90;;;;;;4974116;28;20042;-75
2022/04/25 04:52:00;;;;;;;20.73;11.73;;;7.80;99.90;;;;;;4957102;28;20125;-76
2022/04/25 04:54:26;;;;;;;22.77;11.13;;;7.80;99.90;;;;;;4958490;28;20122;-75
2022/04/25 04:56:51;;;;;;;20.45;10.85;;;7.80;99.90;;;;;;4956831;28;20050;-75
2022/04/25 04:59:17;;;;;;;21.35;11.20;;;7.80;99.90;;;;;;4977117;28;20050;-76
2022/04/25 05:01:43;;;;;;;23.98;11.05;;;8.00;99.90;;;;;;4993485;28;20392;-76
2022/04/25 05:04:09;;;;;;;;;;;7.80;99.90;;;;;;4993055;28;20054;-76
2022/04/25 05:06:35;;;;;;;22.33;10.55;;;7.80;99.90;;;;;;4993522;28;19921;-75
2022/04/25 05:09:01;;;;;;;22.83;10.43;;;7.80;99.90;;;;;;4976182;28;20500;-78
2022/04/25 05:11:29;;;;;;;21.23;11.35;;;7.90;99.90;;;;;;4972300;28;20042;-75
2022/04/25 05:13:55;;;;;;;19.10;10.13;;;8.20;99.90;;;;;;4973860;28;20495;-75
2022/04/25 05:16:21;;;;;;;20.30;10.40;;;7.90;99.90;;;;;;4973673;28;20112;-75
2022/04/25 05:18:46;;;;;;;18.23;10.18;;;7.80;99.90;;;;;;4983744;28;20057;-75
2022/04/25 05:21:13;;;;;;;20.20;10.43;;;7.80;99.90;;;;;;4970673;28;20049;-76
2022/04/25 05:23:41;;;;;;;17.77;9.57;;;7.80;99.90;;;;;;4993267;28;20050;-75
2022/04/25 05:26:08;;;;;;;19.23;10.32;;;7.80;99.90;;;;;;4975578;28;20053;-75
2022/04/25 05:28:33;;;;;;;21.55;9.90;;;7.80;99.90;;;;;;4976814;28;20042;-75
2022/04/25 05:30:59;;;;;;;19.35;9.75;;;7.80;99.90;;;;;;4992722;28;20399;-75
2022/04/25 05:33:25;;;;;;;20.58;9.57;;;7.80;99.90;;;;;;4973522;28;20125;-75
2022/04/25 05:35:52;;;;;;;24.75;10.25;;;7.80;99.90;;;;;;4957680;28;20373;-75
2022/04/25 05:38:18;;;;;;;22.20;10.25;;;7.80;99.90;;;;;;4989530;28;20058;-75
2022/04/25 05:40:44;;;;;;;20.63;9.80;;;7.90;99.90;;;;;;4959290;28;20080;-78
2022/04/25 05:43:10;;;;;;;17.17;9.75;;;8.00;99.90;;;;;;4992045;28;20495;-75
2022/04/25 05:45:36;;;;;;;19.77;9.82;;;8.00;99.90;;;;;;4993300;28;20049;-75
2022/04/25 05:51:58;;;;;;;18.30;10.13;;;8.10;99.90;;;;;;4992999;28;20100;-78
2022/04/25 05:53:33;;;;;;;21.15;10.05;;;8.20;99.90;;;;;;4973844;28;20065;-75
2022/04/25 05:55:59;;;;;;;19.95;9.85;;;8.40;99.90;;;;;;4956209;28;20058;-75
2022/04/25 05:58:25;;;;;;;18.83;10.25;;;8.20;99.90;;;;;;4972997;28;20093;-75
2022/04/25 06:00:50;;;;;;;21.20;10.30;;;8.20;99.90;;;;;;4958685;28;20065;-77
2022/04/25 06:03:16;;;;;;;24.77;9.93;;;8.20;99.90;;;;;;4991607;28;20050;-77
2022/04/25 06:05:45;;;;;;;25.83;10.40;;;8.30;99.90;;;;;;4977229;28;20054;-77
2022/04/25 06:08:11;;;;;;;23.73;10.75;;;8.20;99.90;;;;;;4991774;28;20046;-77
2022/04/25 06:10:36;;;;;;;20.95;9.90;;;8.30;99.90;;;;;;4975879;28;20132;-78
2022/04/25 06:13:02;;;;;;;23.02;10.02;;;8.40;99.90;;;;;;4975185;28;20100;-77
2022/04/25 06:15:30;;;;;;;23.25;10.07;;;8.30;99.90;;;;;;4976491;28;20449;-78
2022/04/25 06:17:56;;;;;;;21.92;10.02;;;8.40;99.90;;;;;;4961503;28;20058;-77
2022/04/25 06:20:22;;;;;;;20.70;10.02;;;8.40;99.90;;;;;;4992477;28;20058;-77
2022/04/25 06:22:56;;;;;;;23.02;10.20;;;8.40;99.90;;;;;;4990759;28;20096;-78
2022/04/25 06:25:23;;;;;;;22.00;9.65;;;8.40;99.90;;;;;;4994437;28;20514;-77
2022/04/25 06:27:48;;;;;;;22.27;10.02;;;8.40;99.90;;;;;;4972160;28;20042;-77
2022/04/25 06:30:14;;;;;;;22.45;10.10;;;8.30;99.90;;;;;;4973603;28;20495;-77
2022/04/25 06:32:40;;;;;;;19.65;9.95;;;8.30;99.90;;;;;;4977016;28;20046;-77
2022/04/25 06:35:08;;;;;;;21.10;10.40;;;8.30;99.90;;;;;;4987734;28;20419;-80
2022/04/25 06:37:33;;;;;;;20.95;10.43;;;8.30;99.90;;;;;;4976742;28;20575;-77
2022/04/25 06:39:59;;;;;;;20.40;10.57;;;8.40;99.90;;;;;;4976310;28;20227;-77
2022/04/25 06:42:25;;;;;;;21.83;11.68;;;8.30;99.90;;;;;;4990131;28;20046;-77
2022/04/25 06:44:51;;;;;;;24.17;10.80;;;8.30;99.90;;;;;;4994829;28;20145;-77
2022/04/25 06:47:17;;;;;;;;;;;8.30;99.90;;;;;;4996108;28;20073;-77
2022/04/25 06:49:43;;;;;;;23.67;10.80;;;8.50;99.90;;;;;;4996009;28;19925;-77
2022/04/25 06:52:09;;;;;;;23.95;11.10;;;8.40;99.90;;;;;;4978978;28;20061;-80
2022/04/25 06:54:35;;;;;;;19.67;11.20;;;8.40;99.90;;;;;;4990093;28;20108;-77
2022/04/25 06:57:02;;;;;;;24.75;11.27;;;8.40;99.90;;;;;;4980118;28;20058;-77
2022/04/25 06:59:28;;;;;;;24.83;10.85;;;8.50;99.90;;;;;;4976030;28;20558;-81
2022/04/25 07:01:54;;;;;;;20.58;10.43;;;8.50;99.90;;;;;;4976532;28;20054;-75
2022/04/25 07:04:20;;;;;;;24.25;11.05;;;8.50;99.90;;;;;;4986554;28;20050;-76
2022/04/25 07:06:46;;;;;;;24.48;11.50;;;8.40;99.90;;;;;;4990317;28;20133;-73
2022/04/25 07:09:13;;;;;;;23.73;11.07;;;8.40;99.90;;;;;;4975055;28;20495;-79
2022/04/25 07:11:48;;;;;;;26.52;11.38;;;8.40;99.90;;;;;;4993765;28;20046;-77
2022/04/25 07:14:18;;;;;;;21.20;10.75;;;8.40;99.90;;;;;;4979099;28;20133;-77
2022/04/25 07:16:48;;;;;;;23.00;11.35;;;8.40;99.90;;;;;;4995742;28;20049;-76
2022/04/25 07:19:17;;;;;;;23.58;11.45;;;8.30;99.90;;;;;;4988946;28;20450;-76
2022/04/25 07:29:56;;;;;;;22.02;11.63;;;8.40;99.90;;;;;;4994735;28;20085;-76
2022/04/25 07:32:22;;;;;;;25.77;12.80;;;8.40;99.90;;;;;;4959138;28;20444;-76
2022/04/25 07:34:48;;;;;;;;;;;8.40;99.90;;;;;;4976414;28;20050;-76
2022/04/25 07:37:18;;;;;;;27.02;13.43;;;8.30;99.90;;;;;;4974930;28;19928;-78
2022/04/25 07:39:45;;;;;;;29.10;13.77;;;8.30;99.90;;;;;;4989983;28;20050;-77
2022/04/25 07:42:11;;;;;;;25.67;13.52;;;8.40;99.90;;;;;;4956954;28;20042;-78
2022/04/25 07:44:38;;;;;;;;;;;8.40;99.90;;;;;;4975943;28;20050;-75
2022/04/25 07:47:05;;;;;;;26.27;13.05;;;8.40;99.90;;;;;;4975776;28;20005;-76
2022/04/25 07:49:33;;;;;;;27.50;13.45;;;8.50;99.90;;;;;;4974958;28;20411;-75
2022/04/25 07:51:59;;;;;;;30.85;13.95;;;8.50;99.90;;;;;;4974696;28;20054;-75
2022/04/25 07:54:26;;;;;;;27.33;14.60;;;8.50;99.90;;;;;;4978212;28;20498;-75
2022/04/25 07:56:51;;;;;;;24.58;13.15;;;8.50;99.90;;;;;;4960500;28;20049;-75
2022/04/25 07:59:18;;;;;;;23.55;13.88;;;8.50;99.90;;;;;;4974912;28;20057;-76
2022/04/25 08:01:43;;;;;;;28.27;15.65;;;8.40;99.90;;;;;;4989393;28;20050;-76
2022/04/25 08:04:09;;;;;;;22.05;13.82;;;8.40;99.90;;;;;;4992381;28;20050;-75
2022/04/25 08:06:35;;;;;;;23.05;13.40;;;8.50;99.90;;;;;;4974744;28;20116;-75
2022/04/25 08:09:03;;;;;;;20.80;12.35;;;8.60;99.90;;;;;;4975990;28;20468;-75
2022/04/25 08:11:29;;;;;;;27.48;12.48;;;8.40;99.90;;;;;;4991137;28;20057;-75
2022/04/25 08:19:23;;;;;;;23.90;12.70;;;8.30;99.90;;;;;;4973618;28;20081;-76
2022/04/25 08:21:49;;;;;;;23.42;12.93;;;8.20;99.90;;;;;;4990107;28;20073;-75
2022/04/25 08:24:15;;;;;;;21.38;12.07;;;8.20;99.90;;;;;;4984562;28;20053;-76
2022/04/25 08:26:41;;;;;;;26.23;12.60;;;8.20;99.90;;;;;;4991792;28;20076;-75
2022/04/25 08:29:07;;;;;;;23.63;12.77;;;8.10;99.90;;;;;;4993496;28;20088;-75
2022/04/25 08:31:35;;;;;;;21.70;11.40;;;8.20;99.90;;;;;;4974068;28;20081;-75
2022/04/25 08:34:02;;;;;;;25.45;12.85;;;8.20;99.90;;;;;;4990740;28;20050;-75
2022/04/25 08:36:29;;;;;;;25.33;14.13;;;8.20;99.90;;;;;;4942063;28;20552;-75
2022/04/25 08:38:54;;;;;;;24.00;12.43;;;8.20;99.90;;;;;;4974707;28;20057;-75
2022/04/25 08:41:27;;;;;;;24.20;12.57;;;8.20;99.90;;;;;;4981776;28;20045;-76
2022/04/25 08:43:55;;;;;;;27.88;13.55;;;8.40;99.90;;;;;;4977307;28;20089;-75
2022/04/25 08:46:22;;;;;;;25.63;13.50;;;8.40;99.90;;;;;;4975822;28;20109;-76
2022/04/25 08:48:52;;;;;;;25.90;12.95;;;8.50;99.90;;;;;;4992664;28;20057;-75
2022/04/25 08:51:20;;;;;;;25.13;13.30;;;8.60;99.90;;;;;;4993297;28;20046;-75
2022/04/25 08:53:46;;;;;;;27.00;13.02;;;8.60;99.90;;;;;;4992961;28;20136;-75
2022/04/25 08:56:13;;;;;;;;;;;8.60;99.90;;;;;;4992940;28;20140;-75
2022/04/25 08:58:46;;;;;;;22.13;12.30;;;8.60;99.90;;;;;;4992772;28;20582;-75
2022/04/25 09:01:13;;;;;;;25.45;12.75;;;8.70;99.90;;;;;;4976638;28;20061;-75
2022/04/25 09:03:39;;;;;;;25.95;13.38;;;8.70;99.90;;;;;;4957244;28;20074;-75
2022/04/25 09:06:06;;;;;;;26.38;13.23;;;8.80;99.90;;;;;;4993052;28;20062;-77
2022/04/25 09:08:32;;;;;;;26.65;13.85;;;8.80;99.90;;;;;;5009324;28;20073;-77
2022/04/25 09:12:09;;;;;;;27.58;13.20;;;8.90;99.90;;;;;;4992150;28;20056;-77
2022/04/25 09:13:45;;;;;;;25.73;12.82;;;9.00;99.90;;;;;;4991528;28;20046;-76
2022/04/25 09:16:13;;;;;;;24.60;12.93;;;9.10;99.90;;;;;;4993627;28;20050;-80
2022/04/25 09:18:39;;;;;;;25.60;13.73;;;9.20;99.90;;;;;;4992061;28;20041;-76
2022/04/25 09:21:06;;;;;;;29.38;13.55;;;9.20;99.90;;;;;;4976384;28;20057;-75
2022/04/25 09:23:32;;;;;;;27.15;13.00;;;9.40;99.90;;;;;;5009264;28;20076;-75
2022/04/25 09:26:14;;;;;;;23.83;11.77;;;9.60;99.90;;;;;;4975953;28;20445;-75
2022/04/25 09:28:54;;;;;;;22.38;11.60;;;9.50;99.90;;;;;;4967271;28;20076;-75
2022/04/25 09:31:22;;;;;;;23.48;12.82;;;9.60;99.90;;;;;;4976476;28;20523;-75
2022/04/25 09:33:49;;;;;;;20.38;11.52;;;9.60;99.90;;;;;;4973563;28;20056;-75
2022/04/25 09:36:15;;;;;;;21.60;10.82;;;9.60;99.90;;;;;;4992730;28;20081;-75
2022/04/25 09:38:41;;;;;;;;;;;9.70;99.90;;;;;;4991015;28;20045;-75
2022/04/25 09:41:09;;;;;;;19.80;10.50;;;9.70;99.90;;;;;;4991241;28;19921;-76
2022/04/25 09:43:38;;;;;;;24.88;12.07;;;9.80;99.90;;;;;;4991225;28;20072;-75
2022/04/25 09:46:13;;;;;;;20.60;9.52;;;9.90;99.90;;;;;;4976557;28;20089;-75
2022/04/25 09:48:41;;;;;;;20.38;9.32;;;10.00;99.90;;;;;;4968240;28;20541;-76
2022/04/25 09:51:09;;;;;;;18.63;10.88;;;10.10;99.90;;;;;;4988543;28;20042;-76
2022/04/25 09:53:46;;;;;;;17.00;9.50;;;10.00;99.90;;;;;;4990570;28;20038;-76
2022/04/25 09:56:34;;;;;;;21.92;10.75;;;10.00;99.90;;;;;;4973290;28;20041;-76
2022/04/25 09:59:09;;;;;;;15.57;9.25;;;10.00;99.90;;;;;;4986445;28;20046;-76
2022/04/25 10:01:37;;;;;;;17.65;9.15;;;10.00;99.90;;;;;;4989587;28;20042;-76
2022/04/25 10:04:04;;;;;;;18.23;10.00;;;9.90;99.90;;;;;;4988125;28;20129;-76
2022/04/25 10:06:34;;;;;;;17.77;9.68;;;9.90;99.90;;;;;;4976497;28;20062;-77
2022/04/25 10:09:02;;;;;;;17.00;9.40;;;9.90;99.90;;;;;;4977580;28;20042;-77
2022/04/25 10:11:39;;;;;;;17.40;9.05;;;9.70;99.90;;;;;;4991493;28;20049;-78
2022/04/25 10:14:06;;;;;;;17.38;9.40;;;9.70;99.90;;;;;;4992232;28;20049;-77
2022/04/25 10:16:34;;;;;;;16.35;9.32;;;9.60;99.90;;;;;;4991589;28;20076;-77
2022/04/25 10:19:00;;;;;;;21.10;9.77;;;9.60;99.90;;;;;;4977441;28;20415;-77
2022/04/25 10:21:29;;;;;;;18.05;9.63;;;9.80;99.90;;;;;;4993388;28;20049;-77
2022/04/25 10:23:57;;;;;;;19.42;10.45;;;9.60;99.90;;;;;;4990622;28;20061;-76
2022/04/25 10:26:27;;;;;;;18.33;10.20;;;9.70;99.90;;;;;;4992513;28;20054;-76
2022/04/25 10:29:26;;;;;;;19.38;9.82;;;9.70;99.90;;;;;;4992277;28;20041;-76
2022/04/25 10:31:59;;;;;;;22.38;11.23;;;9.80;99.90;;;;;;4992616;28;20116;-76
2022/04/25 10:34:45;;;;;;;17.20;11.00;;;9.70;99.90;;;;;;4976060;28;20080;-76
2022/04/25 10:37:29;;;;;;;22.42;10.68;;;9.80;99.90;;;;;;4992734;28;20176;-76
2022/04/25 10:39:56;;;;;;;19.50;10.63;;;9.80;99.90;;;;;;4977098;28;20138;-77
2022/04/25 10:45:06;;;;;;;23.38;12.52;;;10.10;99.90;;;;;;4993441;28;20049;-77
2022/04/25 10:47:32;;;;;;;20.58;11.93;;;10.30;99.90;;;;;;4989257;28;20450;-78
2022/04/25 10:49:59;;;;;;;19.45;11.90;;;10.40;99.90;;;;;;4993791;28;20046;-76
2022/04/25 10:52:42;;;;;;;21.50;12.15;;;10.40;99.90;;;;;;4993331;28;20492;-77
2022/04/25 10:55:29;;;;;;;22.52;12.10;;;10.50;99.90;;;;;;4992999;28;20103;-77
2022/04/25 10:58:05;;;;;;;21.45;12.45;;;10.40;99.90;;;;;;4972977;28;20058;-77
2022/04/25 11:00:37;;;;;;;20.88;11.48;;;10.50;99.90;;;;;;4993407;28;20073;-78
2022/04/25 11:03:06;;;;;;;17.25;10.23;;;10.50;99.90;;;;;;4995103;28;20084;-76
2022/04/25 11:05:32;;;;;;;18.75;10.82;;;10.70;99.90;;;;;;4979911;28;20054;-78
2022/04/25 11:08:20;;;;;;;;;;;10.80;99.90;;;;;;4978196;28;20104;-77
2022/04/25 11:10:48;;;;;;;18.63;10.47;;;10.90;99.90;;;;;;4980342;28;19925;-77
2022/04/25 11:13:18;;;;;;;18.52;11.13;;;11.00;99.90;;;;;;4993171;28;20095;-77
2022/04/25 11:15:49;;;;;;;17.98;10.40;;;11.20;99.90;;;;;;4992366;28;20502;-77
2022/04/25 11:18:34;;;;;;;17.38;10.38;;;11.20;99.90;;;;;;4976419;28;20056;-76
2022/04/25 11:21:02;;;;;;;19.40;9.70;;;11.20;99.90;;;;;;4992046;28;20760;-77
2022/04/25 11:23:31;;;;;;;21.88;9.57;;;11.10;99.90;;;;;;4975204;28;20053;-76
2022/04/25 11:26:01;;;;;;;18.15;10.18;;;11.10;99.90;;;;;;4977217;28;20062;-77
2022/04/25 11:28:28;;;;;;;16.80;9.95;;;11.00;99.90;;;;;;4975426;28;20049;-77
2022/04/25 11:31:12;;;;;;;18.55;9.50;;;11.00;99.90;;;;;;4993052;28;20073;-76
2022/04/25 11:33:43;;;;;;;17.60;9.00;;;11.00;99.90;;;;;;4978231;28;20054;-77
2022/04/25 11:36:11;;;;;;;14.25;8.77;;;11.00;99.90;;;;;;4978652;28;20379;-77
2022/04/25 11:41:28;;;;;;;14.98;8.68;;;11.10;99.90;;;;;;4992861;28;20058;-76
2022/04/25 11:43:54;;;;;;;13.85;8.35;;;11.20;99.90;;;;;;4984156;28;20075;-77
2022/04/25 11:46:20;;;;;;;14.35;7.88;;;11.30;99.90;;;;;;4991912;28;20072;-77
2022/04/25 11:48:50;;;;;;;16.30;8.02;;;11.30;99.90;;;;;;4960311;28;20046;-76
2022/04/25 11:51:35;;;;;;;17.58;7.97;;;11.30;99.90;;;;;;4974857;28;20050;-76
2022/04/25 11:54:06;;;;;;;14.13;7.70;;;11.30;99.90;;;;;;4975216;28;20160;-77
2022/04/25 11:56:34;;;;;;;14.10;8.27;;;11.20;99.90;;;;;;4975748;28;20058;-76
2022/04/25 11:59:06;;;;;;;14.10;7.68;;;11.10;99.90;;;;;;4993110;28;20057;-77
2022/04/25 12:01:38;;;;;;;14.10;7.72;;;11.10;99.90;;;;;;4977872;28;20054;-78
2022/04/25 12:04:15;;;;;;;18.00;8.68;;;11.00;99.90;;;;;;4993730;28;20529;-76
2022/04/25 12:07:02;;;;;;;13.82;7.97;;;11.10;99.90;;;;;;4993708;28;20049;-77
2022/04/25 12:15:35;;;;;;;16.27;8.48;;;11.40;99.90;;;;;;4994429;28;20050;-76
2022/04/25 12:18:18;;;;;;;15.98;9.30;;;11.50;99.90;;;;;;4994030;28;21045;-76
2022/04/25 12:20:49;;;;;;;14.68;8.60;;;11.70;99.90;;;;;;4993710;28;20054;-77
2022/04/25 12:23:27;;;;;;;15.90;9.10;;;11.90;99.90;;;;;;4993691;28;20081;-76
2022/04/25 12:25:53;;;;;;;14.52;8.75;;;12.00;99.90;;;;;;4992384;28;20046;-76
2022/04/25 12:28:22;;;;;;;15.63;8.43;;;12.10;99.90;;;;;;4993043;28;20057;-76
2022/04/25 12:31:03;;;;;;;16.98;9.00;;;11.90;99.90;;;;;;4977694;28;20119;-76
2022/04/25 12:33:35;;;;;;;14.90;9.02;;;11.80;99.90;;;;;;4993997;28;20584;-76
2022/04/25 12:36:21;;;;;;;17.30;9.93;;;11.80;99.90;;;;;;4960913;28;20112;-76
2022/04/25 12:39:13;;;;;;;16.40;9.63;;;11.70;99.90;;;;;;4993718;28;20058;-76
2022/04/25 12:41:41;;;;;;;16.80;9.55;;;11.60;99.90;;;;;;4992567;28;20080;-76
2022/04/25 12:44:10;;;;;;;17.08;10.30;;;11.60;99.90;;;;;;4993891;28;20054;-76
2022/04/25 12:46:55;;;;;;;17.55;9.48;;;11.50;99.90;;;;;;4993188;28;20137;-76
2022/04/25 12:49:31;;;;;;;20.80;9.93;;;11.50;99.90;;;;;;5008667;28;20041;-76
2022/04/25 12:52:02;;;;;;;15.77;9.35;;;11.50;99.90;;;;;;4976007;28;20144;-76
2022/04/25 12:54:33;;;;;;;18.83;10.32;;;11.50;99.90;;;;;;4976832;28;20056;-76
2022/04/25 12:57:18;;;;;;;14.90;9.32;;;11.40;99.90;;;;;;4989562;28;20054;-76
2022/04/25 12:59:53;;;;;;;14.98;9.55;;;11.50;99.90;;;;;;4985497;28;20479;-77
2022/04/25 13:02:31;;;;;;;15.98;9.85;;;11.50;99.90;;;;;;4986720;28;20049;-76
2022/04/25 13:05:00;;;;;;;18.25;10.05;;;11.50;99.90;;;;;;4988926;28;20058;-76
2022/04/25 13:07:38;;;;;;;23.05;11.25;;;11.50;99.90;;;;;;4971963;28;20089;-76
2022/04/25 13:10:09;;;;;;;16.77;9.85;;;11.60;99.90;;;;;;4989850;28;20081;-77
2022/04/25 13:12:44;;;;;;;16.50;9.35;;;11.60;99.90;;;;;;4989722;28;20045;-76
2022/04/25 13:15:13;;;;;;;17.17;9.48;;;11.60;99.90;;;;;;4991005;28;20076;-76
2022/04/25 13:17:40;;;;;;;19.58;10.55;;;11.70;99.90;;;;;;4991265;28;20042;-76
2022/04/25 13:20:08;;;;;;;18.63;10.35;;;11.70;99.90;;;;;;4974456;28;20092;-76
2022/04/25 13:22:34;;;;;;;22.67;11.23;;;11.70;99.90;;;;;;4973028;28;20064;-76